Latest Weather Observations for Cowra

IDN60801

Issued at 9:53 am EST Wednesday 22 September 2021 (issued every 10 minutes, with the page automatically refreshed every 10 minutes)

About weather observations | Map of weather stations | Latest weather observations for NSW | Other Formats
Station Details ID: 065111 Name: COWRA AIRPORT AWS Lat: -33.84 Lon: 148.65 Height: 300.4 m
Data from the previous 72 hours. | See also: Recent months at Cowra
Date/Time
EST
Temp
°C
App
Temp
°C
Dew
Point
°C
Rel
Hum
%
Delta-T
°C
Wind Press
QNH
hPa
Press
MSL
hPa
Rain since
9am
mm
Dir  Spd
km/h
Gust
km/h
Spd
kts
Gust
kts
22/09:30am 9.4 7.5 4.8 73 2.1 SSW 4 7 2 4 1026.7 1026.8 0.0
22/09:00am 8.4 7.0 5.3 81 1.4 SSE 2 9 1 5 1026.7 1026.8 0.0
22/08:30am 6.6 5.3 3.9 83 1.2 CALM 0 0 0 0 1026.5 1026.6 0.0
22/08:00am 5.9 3.9 4.2 89 0.7 NNW 4 7 2 4 1026.4 1026.5 0.0
22/07:30am 4.4 2.9 3.2 92 0.5 CALM 0 0 0 0 1026.2 1026.3 0.0
22/07:00am 1.6 -0.2 1.5 99 0.0 CALM 0 0 0 0 1025.9 1026.0 0.0
22/06:30am 0.0 -2.0 -0.1 99 0.0 CALM 0 0 0 0 1025.6 1025.6 0.0
22/06:00am -0.4 -3.8 -0.5 99 0.0 E 7 7 4 4 1025.3 1025.3 0.0
22/05:30am -0.2 -3.0 -0.3 99 0.0 ESE 4 7 2 4 1025.0 1025.0 0.0
22/05:00am 0.1 -1.9 0.0 99 0.0 CALM 0 0 0 0 1024.5 1024.5 0.0
22/04:30am 0.6 -1.3 0.5 99 0.0 CALM 0 0 0 0 1024.3 1024.3 0.0
22/04:00am 0.2 -1.8 0.1 99 0.0 CALM 0 0 0 0 1024.1 1024.1 0.0
22/03:30am 0.0 -2.0 -0.4 97 0.1 CALM 0 0 0 0 1023.8 1023.9 0.0
22/03:00am 0.9 -1.0 0.5 97 0.1 CALM 0 0 0 0 1024.0 1024.0 0.0
22/02:30am 1.7 -1.4 1.4 98 0.1 E 7 9 4 5 1024.5 1024.5 0.0
22/02:00am 1.8 -1.3 1.4 97 0.2 ESE 7 9 4 5 1024.9 1024.9 0.0
22/01:30am 2.0 0.2 1.4 96 0.2 CALM 0 0 0 0 1025.0 1025.0 0.0
22/01:00am 2.7 0.3 2.0 95 0.3 ESE 4 7 2 4 1025.3 1025.3 0.0
22/12:30am 2.6 0.4 1.0 89 0.6 ENE 2 7 1 4 1025.5 1025.5 0.0
22/12:00am 4.7 3.2 3.2 90 0.6 CALM 0 0 0 0 1025.6 1025.6 0.0
 
Date/Time
EST
Temp
°C
App
Temp
°C
Dew
Point
°C
Rel
Hum
%
Delta-T
°C
Wind Press
QNH
hPa
Press
MSL
hPa
Rain since
9am
mm
Dir  Spd
km/h
Gust
km/h
Spd
kts
Gust
kts
21/11:30pm 3.8 2.2 2.5 91 0.5 CALM 0 0 0 0 1025.8 1025.8 0.0
21/11:00pm 4.6 2.7 2.6 87 0.8 ESE 2 7 1 4 1025.8 1025.8 0.0
21/10:30pm 5.2 2.4 2.9 85 1.0 S 7 9 4 5 1026.0 1026.1 0.0
21/10:00pm 5.9 3.4 3.7 86 0.9 SSW 6 11 3 6 1026.0 1026.1 0.0
21/09:30pm 5.1 3.6 2.8 85 1.0 CALM 0 0 0 0 1025.6 1025.6 0.0
21/09:00pm 5.9 4.4 3.1 82 1.2 CALM 0 0 0 0 1025.8 1025.8 0.0
21/08:30pm 5.2 3.6 2.7 84 1.0 CALM 0 0 0 0 1024.9 1024.9 0.0
21/08:00pm 5.9 3.7 3.1 82 1.2 SW 4 9 2 5 1024.5 1024.5 0.0
21/07:30pm 6.1 3.5 3.3 82 1.2 NW 6 7 3 4 1024.4 1024.4 0.0
21/07:00pm 6.1 2.5 2.9 80 1.3 SW 11 11 6 6 1023.8 1023.9 0.0
21/06:30pm 6.7 2.4 3.0 77 1.6 SW 15 19 8 10 1023.6 1023.7 0.0
21/06:00pm 8.3 4.1 3.6 72 2.0 SW 15 20 8 11 1023.3 1023.4 0.0
21/05:30pm 10.5 5.4 4.0 64 2.9 SW 20 26 11 14 1022.9 1022.9 0.0
21/05:00pm 11.4 5.2 4.4 62 3.2 SW 26 33 14 18 1022.7 1022.7 0.0
21/04:30pm 12.0 5.0 4.2 59 3.6 WSW 30 43 16 23 1022.5 1022.5 0.0
21/04:00pm 12.4 5.9 4.6 59 3.6 SW 28 37 15 20 1022.2 1022.2 0.0
21/03:30pm 12.1 6.3 4.3 59 3.6 WSW 24 33 13 18 1021.9 1021.9 0.0
21/03:00pm 10.8 4.6 4.3 64 2.9 SW 26 39 14 21 1021.9 1021.9 0.0
21/02:30pm 11.2 5.1 4.9 65 2.9 SW 26 39 14 21 1021.9 1021.9 0.0
21/02:00pm 11.3 5.4 5.6 68 2.7 SW 26 33 14 18 1021.9 1021.9 0.0
21/01:30pm 10.1 4.3 4.3 67 2.6 SW 24 32 13 17 1022.0 1022.0 0.0
21/01:00pm 10.2 4.3 3.7 64 2.9 SW 24 33 13 18 1021.8 1021.8 0.0
21/12:30pm 10.5 4.8 4.9 68 2.6 SW 24 37 13 20 1021.7 1021.7 0.0
21/12:00pm 9.3 3.4 3.7 68 2.5 SW 24 35 13 19 1021.8 1021.8 0.0
21/11:30am 8.0 0.9 3.3 72 2.0 WSW 30 39 16 21 1021.9 1021.9 0.0
21/11:00am 8.0 2.1 3.7 74 1.9 SW 24 32 13 17 1021.7 1021.7 0.0
21/10:30am 8.1 2.8 3.0 70 2.2 SW 20 30 11 16 1021.5 1021.5 0.0
21/10:00am 7.9 1.9 3.2 72 2.0 SW 24 35 13 19 1021.3 1021.3 0.0
21/09:30am 6.6 1.0 3.4 80 1.4 SW 22 30 12 16 1021.6 1021.6 0.0
21/09:00am 5.3 -0.5 2.5 82 1.2 SW 22 28 12 15 1021.4 1021.4 0.0
21/08:30am 5.0 -0.2 2.4 83 1.1 SW 19 26 10 14 1021.1 1021.1 0.0
21/08:00am 4.5 -1.7 2.0 84 1.0 SW 24 33 13 18 1020.6 1020.6 0.0
21/07:30am 4.3 -0.1 2.5 88 0.7 SW 15 20 8 11 1019.7 1019.7 0.0
21/07:00am 3.9 -1.3 2.7 92 0.5 WSW 19 26 10 14 1018.9 1018.9 0.0
21/06:30am 4.1 -1.4 2.1 87 0.8 WSW 20 28 11 15 1018.9 1018.9 0.0
21/06:00am 3.9 -1.6 2.1 88 0.7 WSW 20 26 11 14 1018.2 1018.2 0.0
21/05:30am 3.4 -1.9 2.1 91 0.5 SW 19 26 10 14 1017.8 1017.8 0.0
21/05:00am 3.3 -0.4 2.1 92 0.5 SW 11 17 6 9 1017.4 1017.4 0.0
21/04:30am 3.2 -1.3 2.0 92 0.5 SW 15 20 8 11 1017.1 1017.0 0.0
21/04:00am 3.1 -1.0 2.2 94 0.4 SW 13 17 7 9 1017.2 1017.1 0.0
21/03:30am 3.7 -0.8 2.1 89 0.6 SW 15 20 8 11 1016.6 1016.6 0.0
21/03:00am 4.5 -0.9 2.7 88 0.7 SW 20 28 11 15 1016.6 1016.6 0.0
21/02:30am 4.9 -0.8 2.9 87 0.8 SW 22 32 12 17 1016.4 1016.4 0.0
21/02:00am 4.9 1.1 3.7 92 0.5 WSW 13 19 7 10 1016.4 1016.4 0.0
21/01:30am 5.8 2.1 4.3 90 0.7 WSW 13 20 7 11 1016.6 1016.6 0.0
21/01:00am 5.8 2.1 4.3 90 0.7 SW 13 17 7 9 1016.6 1016.6 0.0
21/12:30am 5.9 1.0 4.1 88 0.8 SW 19 24 10 13 1016.6 1016.6 0.0
21/12:00am 7.0 1.7 5.0 87 0.9 SW 22 30 12 16 1016.6 1016.6 0.0
 
Date/Time
EST
Temp
°C
App
Temp
°C
Dew
Point
°C
Rel
Hum
%
Delta-T
°C
Wind Press
QNH
hPa
Press
MSL
hPa
Rain since
9am
mm
Dir  Spd
km/h
Gust
km/h
Spd
kts
Gust
kts
20/11:30pm 7.8 2.7 5.8 87 0.9 SW 22 39 12 21 1016.8 1016.8 0.0
20/11:00pm 7.7 5.2 6.6 93 0.5 WSW 9 13 5 7 1016.7 1016.7 0.0
20/10:30pm 7.5 5.0 6.6 94 0.4 NW 9 11 5 6 1016.6 1016.6 0.0
20/10:00pm 7.5 5.6 6.8 95 0.3 N 6 7 3 4 1016.5 1016.5 0.0
20/09:30pm 7.2 4.7 6.6 96 0.3 N 9 13 5 7 1016.6 1016.6 0.0
20/09:00pm 6.9 3.9 6.2 95 0.3 N 11 15 6 8 1016.5 1016.5 0.0
20/08:30pm 7.3 4.8 6.6 95 0.3 N 9 13 5 7 1016.6 1016.6 0.0
20/08:00pm 7.6 4.6 6.2 91 0.6 N 11 15 6 8 1016.5 1016.5 0.0
20/07:30pm 8.4 5.8 6.0 85 1.1 NNE 9 13 5 7 1016.3 1016.3 0.0
20/07:00pm 9.1 7.4 5.8 80 1.5 NNE 4 9 2 5 1016.2 1016.2 0.0
20/06:30pm 9.3 8.4 5.9 79 1.6 CALM 0 0 0 0 1015.9 1015.9 0.0
20/06:00pm 9.4 8.6 6.3 81 1.5 CALM 0 0 0 0 1015.4 1015.4 0.0
20/05:30pm 9.0 5.7 6.4 84 1.2 SW 13 24 7 13 1015.3 1015.3 0.0
20/05:00pm 9.4 3.1 5.9 79 1.6 SW 28 43 15 23 1015.5 1015.5 0.0
20/04:48pm 9.4 2.3 6.3 81 1.5 SW 33 52 18 28 1015.2 1015.2 0.0
20/04:30pm 10.0 1.3 6.2 77 1.8 SW 41 54 22 29 1014.8 1014.8 0.0
20/04:00pm 10.7 1.9 7.2 79 1.7 SW 43 61 23 33 1014.3 1014.2 0.0
20/03:30pm 12.7 4.9 8.2 74 2.3 SW 39 57 21 31 1013.6 1013.5 0.0
20/03:25pm 12.8 5.7 7.9 72 2.4 SW 35 57 19 31 1013.5 1013.4 0.0
20/03:00pm 13.6 5.0 8.2 70 2.7 SW 43 54 23 29 1013.1 1013.1 0.0
20/02:30pm 16.2 9.1 9.4 64 3.6 SW 37 52 20 28 1012.6 1012.6 0.0
20/02:19pm 16.5 9.4 8.0 57 4.4 W 35 52 19 28 1012.4 1012.4 0.0
20/02:16pm 18.2 11.4 7.9 51 5.3 W 33 52 18 28 1012.2 1012.2 0.0
20/02:00pm 19.8 12.5 4.7 37 7.4 WNW 32 43 17 23 1012.0 1012.0 0.0
20/01:30pm 20.2 13.0 5.1 37 7.5 WNW 32 50 17 27 1012.4 1012.4 0.0
20/01:06pm 20.5 12.9 3.7 33 8.1 WNW 33 54 18 29 1012.7 1012.7 0.0
20/01:00pm 20.4 13.0 4.8 36 7.7 WNW 33 44 18 24 1012.8 1012.8 0.0
20/12:30pm 20.1 13.2 4.6 36 7.6 WNW 30 43 16 23 1013.6 1013.5 0.0
20/12:00pm 19.8 14.1 4.7 37 7.4 WNW 24 32 13 17 1014.1 1014.0 0.0
20/11:30am 19.4 15.2 7.5 46 6.2 NNW 19 26 10 14 1014.8 1014.8 0.0
20/11:00am 17.6 12.7 7.1 50 5.3 NNW 22 30 12 16 1015.4 1015.4 0.0
20/10:30am 16.6 10.9 6.7 52 5.0 NNW 26 33 14 18 1015.7 1015.7 0.0
20/10:00am 15.9 10.2 6.6 54 4.6 NNW 26 35 14 19 1015.9 1015.9 0.0
20/09:30am 15.1 10.1 6.4 56 4.3 NNW 22 30 12 16 1016.2 1016.2 0.0
20/09:00am 13.9 10.2 7.9 67 3.0 NNW 17 24 9 13 1016.5 1016.5 0.2
20/08:30am 12.8 9.6 6.8 67 2.9 NNW 13 19 7 10 1016.8 1016.8 0.2
20/08:00am 10.8 8.1 7.3 79 1.7 N 11 15 6 8 1017.1 1017.0 0.2
20/07:30am 8.6 4.8 5.7 82 1.3 N 15 17 8 9 1017.2 1017.1 0.2
20/07:00am 7.0 4.0 4.1 82 1.3 NNE 9 13 5 7 1017.0 1016.9 0.2
20/06:30am 5.7 3.0 3.5 86 0.9 N 7 11 4 6 1017.1 1017.0 0.2
20/06:00am 4.8 0.9 3.5 91 0.5 N 13 13 7 7 1016.8 1016.8 0.2
20/05:30am 5.3 1.8 3.6 89 0.7 N 11 15 6 8 1016.7 1016.7 0.2
20/05:00am 5.1 1.7 3.8 91 0.6 N 11 13 6 7 1016.8 1016.8 0.2
20/04:30am 5.0 1.9 3.7 91 0.6 N 9 11 5 6 1017.0 1016.9 0.2
20/04:00am 4.5 1.8 3.5 93 0.4 NNE 7 9 4 5 1017.0 1016.9 0.2
20/03:30am 5.1 2.4 3.8 91 0.6 NNE 7 9 4 5 1017.2 1017.1 0.2
20/03:00am 4.9 3.1 3.4 90 0.6 NE 2 7 1 4 1017.5 1017.5 0.2
20/02:30am 6.0 2.7 4.5 90 0.7 N 11 13 6 7 1017.8 1017.8 0.2
20/02:00am 6.0 2.7 4.5 90 0.7 N 11 15 6 8 1018.2 1018.2 0.2
20/01:30am 6.0 3.1 4.5 90 0.7 N 9 11 5 6 1018.5 1018.5 0.2
20/01:00am 6.0 3.4 4.2 88 0.8 NE 7 9 4 5 1019.0 1019.0 0.2
20/12:30am 6.4 3.7 3.9 84 1.1 NE 7 7 4 4 1019.3 1019.3 0.2
20/12:00am 7.0 4.6 4.1 82 1.3 NNE 6 7 3 4 1019.5 1019.5 0.2
 
Date/Time
EST
Temp
°C
App
Temp
°C
Dew
Point
°C
Rel
Hum
%
Delta-T
°C
Wind Press
QNH
hPa
Press
MSL
hPa
Rain since
9am
mm
Dir  Spd
km/h
Gust
km/h
Spd
kts
Gust
kts
19/11:30pm 7.3 4.7 4.3 81 1.3 NNE 7 9 4 5 1019.7 1019.7 0.2
19/11:00pm 7.8 5.4 4.4 79 1.5 NNE 6 9 3 5 1020.0 1020.0 0.2
19/10:30pm 8.3 5.8 4.5 77 1.7 N 7 11 4 6 1020.1 1020.1 0.2
19/10:00pm 8.8 5.9 4.8 76 1.8 N 9 9 5 5 1020.2 1020.3 0.2
19/09:30pm 8.3 5.4 4.9 79 1.5 N 9 11 5 6 1020.5 1020.5 0.2
19/09:00pm 9.9 8.7 4.5 69 2.4 CALM 0 0 0 0 1020.3 1020.4 0.2
19/08:30pm 10.1 8.2 4.9 70 2.4 NNW 4 6 2 3 1020.5 1020.5 0.2
19/08:00pm 10.8 8.5 4.7 66 2.8 N 6 7 3 4 1020.5 1020.5 0.2
19/07:30pm 11.7 9.3 5.3 65 3.0 NNE 7 9 4 5 1020.3 1020.4 0.2
19/07:00pm 12.0 9.8 6.1 67 2.8 N 7 9 4 5 1020.6 1020.6 0.2
19/06:30pm 12.2 9.5 5.6 64 3.1 N 9 9 5 5 1020.3 1020.4 0.2
19/06:00pm 13.8 11.3 4.9 55 4.2 NW 7 11 4 6 1020.3 1020.4 0.2
19/05:30pm 15.7 12.6 5.6 51 4.9 WNW 11 13 6 7 1020.5 1020.5 0.2
19/05:00pm 17.2 13.8 6.1 48 5.5 WNW 13 17 7 9 1020.5 1020.5 0.2
19/04:30pm 17.5 12.6 4.1 41 6.4 WNW 19 28 10 15 1020.2 1020.3 0.2
19/04:00pm 17.8 14.0 5.7 45 6.0 NW 15 20 8 11 1020.1 1020.1 0.2
19/03:30pm 18.1 13.4 5.0 42 6.4 WNW 19 26 10 14 1020.3 1020.4 0.2
19/03:00pm 18.2 13.9 5.4 43 6.3 NW 17 30 9 16 1020.7 1020.7 0.2
19/02:30pm 18.0 13.4 5.6 44 6.1 WNW 19 26 10 14 1021.2 1021.2 0.2
19/02:00pm 18.0 12.9 3.9 39 6.7 WNW 20 28 11 15 1021.7 1021.7 0.2
19/01:30pm 17.8 12.9 5.1 43 6.2 WNW 20 30 11 16 1022.1 1022.1 0.2
19/01:00pm 17.7 13.0 5.9 46 5.8 WNW 20 30 11 16 1022.4 1022.4 0.2
19/12:30pm 17.0 11.9 4.3 43 6.1 WNW 20 28 11 15 1023.1 1023.2 0.2
19/12:00pm 16.6 12.1 6.1 50 5.2 NW 19 26 10 14 1023.4 1023.5 0.2
19/11:30am 16.6 12.4 8.3 58 4.3 NNW 20 30 11 16 1023.6 1023.7 0.2
19/11:00am 15.9 10.7 7.4 57 4.3 NNW 24 32 13 17 1024.2 1024.2 0.2
19/10:30am 15.3 11.1 8.1 62 3.7 N 20 26 11 14 1024.6 1024.6 0.0
19/10:00am 14.5 11.4 8.9 69 2.9 NNW 15 20 8 11 1024.7 1024.7 0.0

Other formats

Comma delimited format used in spreadsheet applications
http://www.bom.gov.au/fwo/IDN60801/IDN60801.95721.axf

JavaScript Object Notation format (JSON) in row-major order
http://www.bom.gov.au/fwo/IDN60801/IDN60801.95721.json

Data quality

Most of these data are generated automatically and are frequently updated. Quality checks on data are not normally performed. It is possible for incorrect values to appear. Refer to information at About Latest Weather Observations and please check the disclaimer before using these data.